aviador You're here:

YSSY Decoded Metar

SYDNEY in AUSTRALIA
Report Time2017-03-23 02:00:00
UTC Time2017-03-23 02:17:56
Flight Rules vfr VFR
Wind210° at 14 kt
W.Decomp.*RWY 16: 11.0 kt HW 8.6 kt RCW
RWY 25: 8.6 kt HW 11 kt LCW
W.Rank210° ranks 17
Current wind is above 210° avg. (12.9)
Visibility9999 m
Phenomena:N/A
Clouds:Few 022 Hf
Broken 037 Hf
Expected CloudBase > 1,200 ft AGL from Temp-Dew spread
Ceiling3,700 ft
Temp22°C (ISA +7)
Dew Point19°C (83% RH)
AAT20.2°C
QNH1018 hPa
Density Alt948 ft
Elevation10 ft
Report Wrong Elevation
Raw Report
METAR YSSY 230200Z 21014KT 9999 FEW022 BKN037 22/19 Q1018
NOSIG=

Extra information for YSSY:More info

Metar Taf Metar & Taf Last 4 Metars F.Rules Stats Wind Profile Meteogram Temp Stats Airport Information Weather charts Add Link Nearby VenuesMetar ALERT Operation Metar Decoded Social comments